createdAt,value
2019-04-28T00:01:31.087Z,72.79
2019-04-28T00:04:04.088Z,73.00
2019-04-28T00:06:35.935Z,73.05
2019-04-28T00:09:09.169Z,73.07
2019-04-28T00:11:42.543Z,73.30
2019-04-28T00:14:14.530Z,73.43
2019-04-28T00:16:46.323Z,73.45
2019-04-28T00:19:21.958Z,73.43
2019-04-28T00:22:01.013Z,73.34
2019-04-28T00:24:46.926Z,73.45
2019-04-28T00:27:21.646Z,73.79
2019-04-28T00:29:57.056Z,74.05
2019-04-28T00:32:30.516Z,73.88
2019-04-28T00:35:03.153Z,73.94
2019-04-28T00:37:37.675Z,73.90
2019-04-28T00:40:11.103Z,73.56
2019-04-28T00:42:43.279Z,73.70
2019-04-28T00:45:15.197Z,73.03
2019-04-28T00:47:46.977Z,72.95
2019-04-28T00:50:18.719Z,72.47
2019-04-28T00:52:51.811Z,72.33
2019-04-28T00:55:23.912Z,72.13
2019-04-28T00:57:55.851Z,71.70
2019-04-28T01:00:31.356Z,71.82
2019-04-28T01:03:03.709Z,72.06
2019-04-28T01:05:35.425Z,72.39
2019-04-28T01:08:07.222Z,72.57
2019-04-28T01:10:41.009Z,72.62
2019-04-28T01:13:12.961Z,72.55
2019-04-28T01:15:54.592Z,72.54
2019-04-28T01:18:35.295Z,72.51
2019-04-28T01:21:07.398Z,72.87
2019-04-28T01:23:40.302Z,72.00
2019-04-28T01:26:12.253Z,72.83
2019-04-28T01:28:49.585Z,73.01
2019-04-28T01:31:34.861Z,72.35
2019-04-28T01:34:16.635Z,72.24
2019-04-28T01:36:49.565Z,72.54
2019-04-28T01:39:21.952Z,72.85
2019-04-28T01:41:53.786Z,73.40
2019-04-28T01:44:25.558Z,73.63
2019-04-28T01:46:59.506Z,73.66
2019-04-28T01:49:31.096Z,73.12
2019-04-28T01:52:03.343Z,73.07
2019-04-28T01:54:35.164Z,73.17
2019-04-28T01:57:06.913Z,73.49
2019-04-28T01:59:40.371Z,73.11
2019-04-28T02:02:12.792Z,73.05
2019-04-28T02:04:44.673Z,73.38
2019-04-28T02:07:16.848Z,73.44
2019-04-28T02:09:49.454Z,72.90
2019-04-28T02:12:21.452Z,73.15
2019-04-28T02:14:53.670Z,73.40
2019-04-28T02:17:25.435Z,73.71
2019-04-28T02:19:57.209Z,73.39
2019-04-28T02:22:45.071Z,73.69
2019-04-28T02:25:19.572Z,73.61
2019-04-28T02:27:51.756Z,73.33
2019-04-28T02:30:41.161Z,73.33
2019-04-28T02:32:57.381Z,73.51
2019-04-28T02:35:31.639Z,74.29
2019-04-28T02:38:03.750Z,74.80
2019-04-28T02:40:35.521Z,74.94
2019-04-28T02:43:07.429Z,75.23
2019-04-28T02:45:41.212Z,75.14
2019-04-28T02:48:21.088Z,74.83
2019-04-28T02:51:11.113Z,74.58
2019-04-28T02:53:47.235Z,74.14
2019-04-28T02:56:21.306Z,74.17
2019-04-28T02:58:52.845Z,74.19
2019-04-28T03:01:26.670Z,74.33
2019-04-28T03:04:00.154Z,74.45
2019-04-28T03:06:31.661Z,74.52
2019-04-28T03:09:04.060Z,74.49
2019-04-28T03:11:35.988Z,74.50
2019-04-28T03:14:11.052Z,74.48
2019-04-28T03:16:43.236Z,74.64
2019-04-28T03:19:15.080Z,74.17
2019-04-28T03:21:47.252Z,74.37
2019-04-28T03:24:21.241Z,74.20
2019-04-28T03:27:05.927Z,74.28
2019-04-28T03:30:00.946Z,74.17
2019-04-28T03:32:45.292Z,73.87
2019-04-28T03:35:12.947Z,73.52
2019-04-28T03:37:44.147Z,73.54
2019-04-28T03:40:15.906Z,73.54
2019-04-28T03:42:47.711Z,73.61
2019-04-28T03:45:25.378Z,73.54
2019-04-28T03:47:57.147Z,73.68
2019-04-28T03:50:31.206Z,73.42
2019-04-28T03:53:02.775Z,73.93
2019-04-28T03:55:35.104Z,73.75
2019-04-28T03:58:06.960Z,73.67
2019-04-28T04:00:41.400Z,73.76
2019-04-28T04:03:13.182Z,73.34
2019-04-28T04:05:45.000Z,73.05
2019-04-28T04:08:16.825Z,73.33
2019-04-28T04:10:54.041Z,73.33
2019-04-28T04:13:32.988Z,73.43
2019-04-28T04:16:14.616Z,73.20
2019-04-28T04:18:53.149Z,73.59
2019-04-28T04:21:22.187Z,73.17
2019-04-28T04:23:53.914Z,73.19
2019-04-28T04:26:25.773Z,73.07
2019-04-28T04:29:00.707Z,73.40
2019-04-28T04:31:31.790Z,73.90
2019-04-28T04:34:03.987Z,73.68
2019-04-28T04:36:35.758Z,73.84
2019-04-28T04:39:10.767Z,73.56
2019-04-28T04:41:43.758Z,73.39
2019-04-28T04:44:15.627Z,73.08
2019-04-28T04:46:47.712Z,73.23
2019-04-28T04:49:21.498Z,73.28
2019-04-28T04:51:52.945Z,73.49
2019-04-28T04:54:24.692Z,73.67
2019-04-28T04:56:56.471Z,73.55
2019-04-28T04:59:30.207Z,73.45
2019-04-28T05:02:29.697Z,73.70
2019-04-28T05:05:21.635Z,73.62
2019-04-28T05:07:53.369Z,73.08
2019-04-28T05:10:25.101Z,73.02
2019-04-28T05:12:57.790Z,73.05
2019-04-28T05:15:30.429Z,73.04
2019-04-28T05:18:02.338Z,73.02
2019-04-28T05:20:34.173Z,72.91
2019-04-28T05:23:19.624Z,73.32
2019-04-28T05:25:54.099Z,73.44
2019-04-28T05:28:25.901Z,73.71
2019-04-28T05:30:59.978Z,73.85
2019-04-28T05:33:33.957Z,73.95
2019-04-28T05:36:05.669Z,73.80
2019-04-28T05:38:40.191Z,73.09
2019-04-28T05:41:16.176Z,73.37
2019-04-28T05:43:48.004Z,73.12
2019-04-28T05:46:19.766Z,73.52
2019-04-28T05:48:59.956Z,73.41
2019-04-28T05:51:33.770Z,73.00
2019-04-28T05:54:27.641Z,73.21
2019-04-28T05:57:10.677Z,72.90
2019-04-28T06:00:16.385Z,72.65
2019-04-28T06:02:56.543Z,72.80
2019-04-28T06:05:23.958Z,72.93
2019-04-28T06:08:11.395Z,72.62
2019-04-28T06:10:44.824Z,72.52
2019-04-28T06:13:16.800Z,72.80
2019-04-28T06:15:49.668Z,71.66
2019-04-28T06:18:21.651Z,66.96
2019-04-28T06:20:53.392Z,63.33
2019-04-28T06:23:25.153Z,60.97
2019-04-28T06:25:57.894Z,58.74
2019-04-28T06:28:29.733Z,56.97
2019-04-28T06:31:01.452Z,55.92
2019-04-28T06:33:33.188Z,56.41
2019-04-28T06:36:04.928Z,54.55
2019-04-28T06:38:38.572Z,52.96
2019-04-28T06:41:10.364Z,51.35
2019-04-28T06:43:42.175Z,51.22
2019-04-28T06:46:15.409Z,53.64
2019-04-28T06:48:48.762Z,51.98
2019-04-28T06:51:20.527Z,49.56
2019-04-28T06:53:55.526Z,48.50
2019-04-28T06:56:27.239Z,48.62
2019-04-28T06:58:59.543Z,47.95
2019-04-28T07:01:32.355Z,46.89
2019-04-28T07:04:04.115Z,46.21
2019-04-28T07:06:35.857Z,46.59
2019-04-28T07:09:08.577Z,50.53
2019-04-28T07:11:40.323Z,48.15
2019-04-28T07:14:13.719Z,50.15
2019-04-28T07:16:45.937Z,48.04
2019-04-28T07:19:17.767Z,49.79
2019-04-28T07:22:17.542Z,48.84
2019-04-28T07:24:49.486Z,47.50
2019-04-28T07:27:23.164Z,48.24
2019-04-28T07:29:55.449Z,48.46
2019-04-28T07:32:27.342Z,46.77
2019-04-28T07:34:59.075Z,48.03
2019-04-28T07:37:31.391Z,49.32
2019-04-28T07:40:03.284Z,48.47
2019-04-28T07:42:35.021Z,47.90
2019-04-28T07:45:07.409Z,49.64
2019-04-28T07:47:39.157Z,46.36
2019-04-28T07:50:10.916Z,45.15
2019-04-28T07:53:07.683Z,45.00
2019-04-28T07:55:41.301Z,48.50
2019-04-28T07:58:13.093Z,47.39
2019-04-28T08:00:44.846Z,46.25
2019-04-28T08:03:16.782Z,46.53
2019-04-28T08:05:48.510Z,45.23
2019-04-28T08:08:20.571Z,44.48
2019-04-28T08:10:52.391Z,46.22
2019-04-28T08:13:45.813Z,42.89
2019-04-28T08:16:17.640Z,40.68
2019-04-28T08:18:49.441Z,40.54
2019-04-28T08:21:21.947Z,40.24
2019-04-28T08:23:55.864Z,38.19
2019-04-28T08:26:32.201Z,37.47
2019-04-28T08:29:04.814Z,35.68
2019-04-28T08:32:13.837Z,35.30
2019-04-28T08:34:47.215Z,33.89
2019-04-28T08:37:18.940Z,33.40
2019-04-28T08:39:50.688Z,32.92
2019-04-28T08:42:22.465Z,32.57
2019-04-28T08:44:54.209Z,32.40
2019-04-28T08:47:26.013Z,32.58
2019-04-28T08:49:57.874Z,31.80
2019-04-28T08:52:29.890Z,31.87
2019-04-28T08:55:03.360Z,30.54
2019-04-28T08:57:35.090Z,32.17
2019-04-28T09:00:10.605Z,30.95
2019-04-28T09:02:42.396Z,30.83
2019-04-28T09:05:16.072Z,30.71
2019-04-28T09:07:48.887Z,30.43
2019-04-28T09:10:20.822Z,31.13
2019-04-28T09:12:53.537Z,30.30
2019-04-28T09:15:25.632Z,29.70
2019-04-28T09:17:57.542Z,29.60
2019-04-28T09:20:29.313Z,29.49
2019-04-28T09:23:01.050Z,29.26
2019-04-28T09:25:34.058Z,29.63
2019-04-28T09:28:06.265Z,29.95
2019-04-28T09:30:38.002Z,29.03
2019-04-28T09:33:10.319Z,28.84
2019-04-28T09:35:43.458Z,29.22
2019-04-28T09:38:15.587Z,28.62
2019-04-28T09:40:48.438Z,28.05
2019-04-28T09:43:42.073Z,28.86
2019-04-28T09:46:23.268Z,29.41
2019-04-28T09:49:10.620Z,28.70
2019-04-28T09:51:50.830Z,28.26
2019-04-28T09:54:44.576Z,29.26
2019-04-28T09:57:16.329Z,29.99
2019-04-28T09:59:48.191Z,28.85
2019-04-28T10:02:19.997Z,28.29
2019-04-28T10:04:52.322Z,28.08
2019-04-28T10:07:24.096Z,27.74
2019-04-28T10:09:55.875Z,28.08
2019-04-28T10:12:27.657Z,28.33
2019-04-28T10:14:59.458Z,28.09
2019-04-28T10:17:31.214Z,27.76
2019-04-28T10:20:02.995Z,27.67
2019-04-28T10:22:34.759Z,27.93
2019-04-28T10:25:07.280Z,27.81
2019-04-28T10:27:39.090Z,26.89
2019-04-28T10:30:13.454Z,30.84
2019-04-28T10:32:45.201Z,28.72
2019-04-28T10:35:18.912Z,28.96
2019-04-28T10:37:51.634Z,31.69
2019-04-28T10:40:58.917Z,33.08
2019-04-28T10:43:30.627Z,30.94
2019-04-28T10:46:02.472Z,29.46
2019-04-28T10:48:34.257Z,28.89
2019-04-28T10:51:05.978Z,28.42
2019-04-28T10:53:37.778Z,29.53
2019-04-28T10:56:11.132Z,28.64
2019-04-28T10:58:45.113Z,28.17
2019-04-28T11:01:16.837Z,30.10
2019-04-28T11:03:50.714Z,31.33
2019-04-28T11:06:22.446Z,32.14
2019-04-28T11:09:31.367Z,30.62
2019-04-28T11:12:04.765Z,30.04
2019-04-28T11:14:36.642Z,32.07
2019-04-28T11:17:08.548Z,32.03
2019-04-28T11:19:40.385Z,32.72
2019-04-28T11:22:15.206Z,30.57
2019-04-28T11:24:46.970Z,31.40
2019-04-28T11:27:23.337Z,29.18
2019-04-28T11:29:55.296Z,29.12
2019-04-28T11:32:27.098Z,29.97
2019-04-28T11:35:21.236Z,29.77
2019-04-28T11:37:46.328Z,30.24
2019-04-28T11:40:20.289Z,30.13
2019-04-28T11:42:52.088Z,30.39
2019-04-28T11:45:23.938Z,30.17
2019-04-28T11:47:56.621Z,31.45
2019-04-28T11:50:30.231Z,31.77
2019-04-28T11:53:02.410Z,31.16
2019-04-28T11:55:36.046Z,32.56
2019-04-28T11:58:08.090Z,32.38
2019-04-28T12:00:40.119Z,32.08
2019-04-28T12:03:11.956Z,31.48
2019-04-28T12:05:46.636Z,31.24
2019-04-28T12:08:20.465Z,32.23
2019-04-28T12:11:23.554Z,31.68
2019-04-28T12:14:08.885Z,32.25
2019-04-28T12:17:03.166Z,31.26
2019-04-28T12:19:42.519Z,30.22
2019-04-28T12:22:14.814Z,29.66
2019-04-28T12:25:00.453Z,29.60
2019-04-28T12:27:34.136Z,30.20
2019-04-28T12:30:06.109Z,31.64
2019-04-28T12:32:37.907Z,31.20
2019-04-28T12:35:12.399Z,31.17
2019-04-28T12:37:44.182Z,32.21
2019-04-28T12:40:17.483Z,33.00
2019-04-28T12:42:51.195Z,32.90
2019-04-28T12:45:34.440Z,32.31
2019-04-28T12:47:56.511Z,32.19
2019-04-28T12:50:33.371Z,31.10
2019-04-28T12:53:05.168Z,30.41
2019-04-28T12:55:38.622Z,30.07
2019-04-28T12:58:11.078Z,30.24
2019-04-28T13:01:20.165Z,31.52
2019-04-28T13:04:26.533Z,30.10
2019-04-28T13:07:02.868Z,30.04
2019-04-28T13:09:37.061Z,29.90
2019-04-28T13:12:08.833Z,29.28
2019-04-28T13:14:40.581Z,30.69
2019-04-28T13:17:12.355Z,30.15
2019-04-28T13:19:44.101Z,31.31
2019-04-28T13:22:15.877Z,31.85
2019-04-28T13:24:48.276Z,31.50
2019-04-28T13:27:20.117Z,29.85
2019-04-28T13:29:51.872Z,29.79
2019-04-28T13:32:23.668Z,30.91
2019-04-28T13:34:55.927Z,30.21
2019-04-28T13:37:32.753Z,30.35
2019-04-28T13:40:12.004Z,31.92
2019-04-28T13:42:43.866Z,31.57
2019-04-28T13:45:18.981Z,31.02
2019-04-28T13:47:51.851Z,30.99
2019-04-28T13:50:31.890Z,30.06
2019-04-28T13:53:05.230Z,29.79
2019-04-28T13:55:59.515Z,29.84
2019-04-28T13:58:33.693Z,30.51
2019-04-28T14:01:21.667Z,30.82
2019-04-28T14:04:14.083Z,30.17
2019-04-28T14:06:49.578Z,30.08
2019-04-28T14:09:22.930Z,29.27
2019-04-28T14:11:54.818Z,29.21
2019-04-28T14:14:27.046Z,30.73
2019-04-28T14:16:59.052Z,31.21
2019-04-28T14:19:30.778Z,31.35
2019-04-28T14:22:02.732Z,30.54
2019-04-28T14:24:34.568Z,29.43
2019-04-28T14:27:07.542Z,28.98
2019-04-28T14:29:39.301Z,28.48
2019-04-28T14:32:11.289Z,28.86
2019-04-28T14:34:43.071Z,28.61
2019-04-28T14:37:14.909Z,28.87
2019-04-28T14:39:47.583Z,28.47
2019-04-28T14:42:19.431Z,28.27
2019-04-28T14:44:51.716Z,28.80
2019-04-28T14:47:23.509Z,29.79
2019-04-28T14:49:55.266Z,31.20
2019-04-28T14:52:27.437Z,30.24
2019-04-28T14:55:25.444Z,30.85
2019-04-28T14:58:09.314Z,31.33
2019-04-28T15:00:47.181Z,30.66
2019-04-28T15:03:20.767Z,31.22
2019-04-28T15:06:02.076Z,30.03
2019-04-28T15:08:49.617Z,30.72
2019-04-28T15:11:38.929Z,30.28
2019-04-28T15:14:12.692Z,30.12
2019-04-28T15:16:44.481Z,35.63
2019-04-28T15:19:16.930Z,38.31
2019-04-28T15:21:49.183Z,37.91
2019-04-28T15:24:21.011Z,38.01
2019-04-28T15:27:24.375Z,38.68
2019-04-28T15:29:56.167Z,39.78
2019-04-28T15:32:28.155Z,39.10
2019-04-28T15:35:01.662Z,38.73
2019-04-28T15:37:33.860Z,39.10
2019-04-28T15:40:18.457Z,38.83
2019-04-28T15:42:51.491Z,38.72
2019-04-28T15:45:23.642Z,37.95
2019-04-28T15:47:59.022Z,37.55
2019-04-28T15:50:35.663Z,37.91
2019-04-28T15:53:07.900Z,37.44
2019-04-28T15:56:07.208Z,38.89
2019-04-28T15:58:40.045Z,38.99
2019-04-28T16:01:11.931Z,39.61
2019-04-28T16:03:43.723Z,39.84
2019-04-28T16:06:15.548Z,39.57
2019-04-28T16:08:50.073Z,39.30
2019-04-28T16:11:24.226Z,39.56
2019-04-28T16:13:56.081Z,39.94
2019-04-28T16:16:28.266Z,40.44
2019-04-28T16:19:02.165Z,40.37
2019-04-28T16:21:33.982Z,40.53
2019-04-28T16:24:06.235Z,39.87
2019-04-28T16:26:39.217Z,39.76
2019-04-28T16:29:11.556Z,39.35
2019-04-28T16:31:43.836Z,39.35
2019-04-28T16:34:16.598Z,39.53
2019-04-28T16:36:49.515Z,39.85
2019-04-28T16:39:21.605Z,39.33
2019-04-28T16:42:27.887Z,40.33
2019-04-28T16:45:21.543Z,40.37
2019-04-28T16:47:53.368Z,40.72
2019-04-28T16:50:41.100Z,39.81
2019-04-28T16:53:22.234Z,40.92
2019-04-28T16:56:08.957Z,41.42
2019-04-28T16:59:15.866Z,41.05
2019-04-28T17:01:57.752Z,40.52
2019-04-28T17:04:31.918Z,40.75
2019-04-28T17:07:12.752Z,39.97
2019-04-28T17:09:47.609Z,40.47
2019-04-28T17:12:26.473Z,38.71
2019-04-28T17:15:06.861Z,38.30
2019-04-28T17:17:41.837Z,38.82
2019-04-28T17:20:18.896Z,39.49
2019-04-28T17:22:52.363Z,38.52
2019-04-28T17:25:24.655Z,38.45
2019-04-28T17:27:59.781Z,39.50
2019-04-28T17:30:41.577Z,38.92
2019-04-28T17:33:16.641Z,39.88
2019-04-28T17:35:48.499Z,39.66
2019-04-28T17:38:22.032Z,41.06
2019-04-28T17:40:54.180Z,40.62
2019-04-28T17:43:28.214Z,41.01
2019-04-28T17:46:00.127Z,40.85
2019-04-28T17:48:35.630Z,41.16
2019-04-28T17:51:07.701Z,40.81
2019-04-28T17:53:40.242Z,40.96
2019-04-28T17:56:12.216Z,40.54
2019-04-28T17:58:44.086Z,40.39
2019-04-28T18:01:46.998Z,40.28
2019-04-28T18:04:50.015Z,40.59
2019-04-28T18:07:33.600Z,40.43
2019-04-28T18:10:07.518Z,41.08
2019-04-28T18:12:39.404Z,41.17
2019-04-28T18:15:28.929Z,41.88
2019-04-28T18:18:06.406Z,41.95
2019-04-28T18:20:39.492Z,42.24
2019-04-28T18:23:11.546Z,41.63
2019-04-28T18:25:45.425Z,42.11
2019-04-28T18:28:19.967Z,42.98
2019-04-28T18:31:03.157Z,43.28
2019-04-28T18:33:56.642Z,42.92
2019-04-28T18:36:35.775Z,43.29
2019-04-28T18:39:37.743Z,43.57
2019-04-28T18:42:22.542Z,43.39
2019-04-28T18:44:54.862Z,43.35
2019-04-28T18:47:26.751Z,43.24
2019-04-28T18:49:59.679Z,43.46
2019-04-28T18:52:31.560Z,42.95
2019-04-28T18:55:03.466Z,42.73
2019-04-28T18:57:35.315Z,42.77
2019-04-28T19:00:08.739Z,43.33
2019-04-28T19:02:47.696Z,43.47
2019-04-28T19:05:20.666Z,43.10
2019-04-28T19:08:17.393Z,42.90
2019-04-28T19:10:58.583Z,43.39
2019-04-28T19:13:32.363Z,43.32
2019-04-28T19:16:23.581Z,43.93
2019-04-28T19:18:59.741Z,44.93
2019-04-28T19:21:31.727Z,47.88
2019-04-28T19:24:03.922Z,48.83
2019-04-28T19:26:37.717Z,48.96
2019-04-28T19:29:11.711Z,48.66
2019-04-28T19:31:51.417Z,47.82
2019-04-28T19:34:23.389Z,48.41
2019-04-28T19:36:55.309Z,49.67
2019-04-28T19:39:27.162Z,49.38
2019-04-28T19:41:58.961Z,49.60
2019-04-28T19:44:30.818Z,49.79
2019-04-28T19:47:02.635Z,50.25
2019-04-28T19:49:34.797Z,50.26
2019-04-28T19:52:07.597Z,50.66
2019-04-28T19:54:42.698Z,50.77
2019-04-28T19:57:30.493Z,50.91
2019-04-28T20:00:14.341Z,51.46
2019-04-28T20:02:48.001Z,51.75
2019-04-28T20:05:21.796Z,52.30
2019-04-28T20:07:54.027Z,52.40
2019-04-28T20:10:25.968Z,52.30
2019-04-28T20:12:58.588Z,52.63
2019-04-28T20:15:30.806Z,53.28
2019-04-28T20:18:04.766Z,53.89
2019-04-28T20:20:37.040Z,53.92
2019-04-28T20:23:08.829Z,54.40
2019-04-28T20:25:41.123Z,54.90
2019-04-28T20:28:13.028Z,55.04
2019-04-28T20:30:47.381Z,55.70
2019-04-28T20:33:21.873Z,55.99
2019-04-28T20:35:58.167Z,55.89
2019-04-28T20:38:33.582Z,56.16
2019-04-28T20:41:18.352Z,56.64
2019-04-28T20:43:50.210Z,56.49
2019-04-28T20:46:22.023Z,57.06
2019-04-28T20:48:54.082Z,57.49
2019-04-28T20:51:27.751Z,57.44
2019-04-28T20:54:00.388Z,57.42
2019-04-28T20:56:32.842Z,57.64
2019-04-28T20:59:04.623Z,57.89
2019-04-28T21:01:48.951Z,58.15
2019-04-28T21:04:23.005Z,58.21
2019-04-28T21:06:54.858Z,58.61
2019-04-28T21:09:30.574Z,58.35
2019-04-28T21:12:02.457Z,58.58
2019-04-28T21:14:41.053Z,58.81
2019-04-28T21:17:14.767Z,59.38
2019-04-28T21:19:46.723Z,59.82
2019-04-28T21:22:18.651Z,60.08
2019-04-28T21:24:50.484Z,60.24
2019-04-28T21:27:22.273Z,60.60
2019-04-28T21:29:54.260Z,60.99
2019-04-28T21:32:27.639Z,61.36
2019-04-28T21:37:53.828Z,60.73
2019-04-28T21:40:29.859Z,61.07
2019-04-28T21:43:20.510Z,61.36
2019-04-28T21:46:12.116Z,60.78
2019-04-28T21:48:50.244Z,60.75
2019-04-28T21:51:22.054Z,61.63
2019-04-28T21:53:54.022Z,62.21
2019-04-28T21:56:26.022Z,62.53
2019-04-28T21:58:58.276Z,62.63
2019-04-28T22:01:30.213Z,62.13
2019-04-28T22:04:02.231Z,62.32
2019-04-28T22:06:34.437Z,62.38
2019-04-28T22:09:07.428Z,64.14
2019-04-28T22:11:44.146Z,64.01
2019-04-28T22:14:17.044Z,63.53
2019-04-28T22:16:49.252Z,63.53
2019-04-28T22:19:21.119Z,63.55
2019-04-28T22:21:53.035Z,63.62
2019-04-28T22:24:30.703Z,64.09
2019-04-28T22:27:02.602Z,64.58
2019-04-28T22:29:34.386Z,64.83
2019-04-28T22:32:06.560Z,64.80
2019-04-28T22:34:38.651Z,64.76
2019-04-28T22:37:11.731Z,64.63
2019-04-28T22:39:43.531Z,64.69
2019-04-28T22:42:18.513Z,65.40
2019-04-28T22:44:50.341Z,65.42
2019-04-28T22:47:22.171Z,65.90
2019-04-28T22:49:53.908Z,66.23
2019-04-28T22:52:25.638Z,65.91
2019-04-28T22:55:16.374Z,65.75
2019-04-28T22:58:15.800Z,65.83
2019-04-28T23:01:15.461Z,66.27
2019-04-28T23:03:52.926Z,66.22
2019-04-28T23:06:26.292Z,67.08
2019-04-28T23:08:58.478Z,67.12
2019-04-28T23:11:30.359Z,67.06
2019-04-28T23:14:02.121Z,67.03
2019-04-28T23:16:34.566Z,67.12
2019-04-28T23:19:10.322Z,67.24
2019-04-28T23:22:10.105Z,67.26
2019-04-28T23:24:42.081Z,67.17
2019-04-28T23:27:14.052Z,66.93
2019-04-28T23:29:46.018Z,66.67
2019-04-28T23:32:17.836Z,66.61
2019-04-28T23:34:49.594Z,66.28
2019-04-28T23:37:21.387Z,66.39
2019-04-28T23:39:53.793Z,66.81
2019-04-28T23:42:34.495Z,67.18
2019-04-28T23:45:08.458Z,67.00
2019-04-28T23:47:41.514Z,67.20
2019-04-28T23:50:14.917Z,67.70
2019-04-28T23:52:58.430Z,68.12
2019-04-28T23:55:30.183Z,68.15
2019-04-28T23:58:02.027Z,67.88
